sensor_id;sensor_type;location;lat;lon;timestamp;P1;durP1;ratioP1;P2;durP2;ratioP2
10550;SDS011;5324;50.684;3.862;2024-02-21T00:02:23;14.37;;;5.93;;
10550;SDS011;5324;50.684;3.862;2024-02-21T00:04:49;11.03;;;5.80;;
10550;SDS011;5324;50.684;3.862;2024-02-21T00:07:15;12.00;;;6.03;;
10550;SDS011;5324;50.684;3.862;2024-02-21T00:09:41;11.97;;;5.27;;
10550;SDS011;5324;50.684;3.862;2024-02-21T00:12:07;11.33;;;5.43;;
10550;SDS011;5324;50.684;3.862;2024-02-21T00:14:33;9.33;;;5.37;;
10550;SDS011;5324;50.684;3.862;2024-02-21T00:16:59;10.80;;;5.80;;
10550;SDS011;5324;50.684;3.862;2024-02-21T00:19:25;11.73;;;5.97;;
10550;SDS011;5324;50.684;3.862;2024-02-21T00:21:51;12.60;;;6.13;;
10550;SDS011;5324;50.684;3.862;2024-02-21T00:24:18;12.47;;;5.93;;
10550;SDS011;5324;50.684;3.862;2024-02-21T00:26:44;11.07;;;5.53;;
10550;SDS011;5324;50.684;3.862;2024-02-21T00:29:10;10.00;;;5.60;;
10550;SDS011;5324;50.684;3.862;2024-02-21T00:31:36;13.07;;;5.53;;
10550;SDS011;5324;50.684;3.862;2024-02-21T00:34:02;11.57;;;6.10;;
10550;SDS011;5324;50.684;3.862;2024-02-21T00:36:28;9.87;;;5.67;;
10550;SDS011;5324;50.684;3.862;2024-02-21T00:38:54;11.70;;;5.83;;
10550;SDS011;5324;50.684;3.862;2024-02-21T00:41:20;8.73;;;5.67;;
10550;SDS011;5324;50.684;3.862;2024-02-21T00:43:46;10.27;;;6.10;;
10550;SDS011;5324;50.684;3.862;2024-02-21T00:46:15;13.03;;;6.23;;
10550;SDS011;5324;50.684;3.862;2024-02-21T00:48:41;8.60;;;4.83;;
10550;SDS011;5324;50.684;3.862;2024-02-21T00:51:07;12.87;;;5.23;;
10550;SDS011;5324;50.684;3.862;2024-02-21T00:53:33;12.70;;;6.07;;
10550;SDS011;5324;50.684;3.862;2024-02-21T00:55:59;10.57;;;5.93;;
10550;SDS011;5324;50.684;3.862;2024-02-21T00:58:25;11.57;;;5.57;;
10550;SDS011;5324;50.684;3.862;2024-02-21T01:00:51;15.47;;;6.13;;
10550;SDS011;5324;50.684;3.862;2024-02-21T01:03:17;13.00;;;6.40;;
10550;SDS011;5324;50.684;3.862;2024-02-21T01:05:43;14.17;;;6.53;;
10550;SDS011;5324;50.684;3.862;2024-02-21T01:08:09;13.33;;;6.77;;
10550;SDS011;5324;50.684;3.862;2024-02-21T01:10:35;15.03;;;7.00;;
10550;SDS011;5324;50.684;3.862;2024-02-21T01:13:00;11.63;;;6.57;;
10550;SDS011;5324;50.684;3.862;2024-02-21T01:15:26;11.00;;;6.33;;
10550;SDS011;5324;50.684;3.862;2024-02-21T01:17:53;13.60;;;6.73;;
10550;SDS011;5324;50.684;3.862;2024-02-21T01:20:20;14.27;;;6.87;;
10550;SDS011;5324;50.684;3.862;2024-02-21T01:22:46;13.63;;;6.83;;
10550;SDS011;5324;50.684;3.862;2024-02-21T01:25:12;11.47;;;6.83;;
10550;SDS011;5324;50.684;3.862;2024-02-21T01:27:38;11.27;;;6.70;;
10550;SDS011;5324;50.684;3.862;2024-02-21T01:30:05;16.20;;;7.30;;
10550;SDS011;5324;50.684;3.862;2024-02-21T01:32:31;12.53;;;6.80;;
10550;SDS011;5324;50.684;3.862;2024-02-21T01:34:58;13.63;;;6.47;;
10550;SDS011;5324;50.684;3.862;2024-02-21T01:37:24;14.87;;;6.27;;
10550;SDS011;5324;50.684;3.862;2024-02-21T01:39:50;15.80;;;7.23;;
10550;SDS011;5324;50.684;3.862;2024-02-21T01:42:16;12.67;;;7.03;;
10550;SDS011;5324;50.684;3.862;2024-02-21T01:44:42;11.50;;;6.83;;
10550;SDS011;5324;50.684;3.862;2024-02-21T01:47:09;12.53;;;6.50;;
10550;SDS011;5324;50.684;3.862;2024-02-21T01:49:36;12.57;;;6.20;;
10550;SDS011;5324;50.684;3.862;2024-02-21T01:52:02;11.07;;;6.23;;
10550;SDS011;5324;50.684;3.862;2024-02-21T01:54:28;10.20;;;6.73;;
10550;SDS011;5324;50.684;3.862;2024-02-21T01:56:54;14.97;;;7.17;;
10550;SDS011;5324;50.684;3.862;2024-02-21T01:59:21;16.47;;;7.53;;
10550;SDS011;5324;50.684;3.862;2024-02-21T02:01:47;10.67;;;6.60;;
10550;SDS011;5324;50.684;3.862;2024-02-21T02:04:13;11.57;;;6.43;;
10550;SDS011;5324;50.684;3.862;2024-02-21T02:06:39;12.53;;;6.57;;
10550;SDS011;5324;50.684;3.862;2024-02-21T02:09:06;15.63;;;6.97;;
10550;SDS011;5324;50.684;3.862;2024-02-21T02:11:32;13.77;;;6.83;;
10550;SDS011;5324;50.684;3.862;2024-02-21T02:13:59;11.27;;;6.60;;
10550;SDS011;5324;50.684;3.862;2024-02-21T02:16:24;12.53;;;6.97;;
10550;SDS011;5324;50.684;3.862;2024-02-21T02:18:50;11.17;;;7.00;;
10550;SDS011;5324;50.684;3.862;2024-02-21T02:21:24;12.33;;;6.70;;
10550;SDS011;5324;50.684;3.862;2024-02-21T02:23:52;16.53;;;6.63;;
10550;SDS011;5324;50.684;3.862;2024-02-21T02:26:19;13.97;;;7.17;;
10550;SDS011;5324;50.684;3.862;2024-02-21T02:28:45;13.53;;;6.80;;
10550;SDS011;5324;50.684;3.862;2024-02-21T02:31:11;10.20;;;6.40;;
10550;SDS011;5324;50.684;3.862;2024-02-21T02:33:37;13.87;;;6.67;;
10550;SDS011;5324;50.684;3.862;2024-02-21T02:36:03;17.10;;;7.07;;
10550;SDS011;5324;50.684;3.862;2024-02-21T02:38:29;13.33;;;6.27;;
10550;SDS011;5324;50.684;3.862;2024-02-21T02:40:55;13.97;;;7.33;;
10550;SDS011;5324;50.684;3.862;2024-02-21T02:43:21;12.60;;;6.67;;
10550;SDS011;5324;50.684;3.862;2024-02-21T02:45:47;10.90;;;6.07;;
10550;SDS011;5324;50.684;3.862;2024-02-21T02:48:14;13.50;;;7.37;;
10550;SDS011;5324;50.684;3.862;2024-02-21T02:50:40;12.90;;;7.30;;
10550;SDS011;5324;50.684;3.862;2024-02-21T02:53:06;10.93;;;6.47;;
10550;SDS011;5324;50.684;3.862;2024-02-21T02:55:32;9.30;;;6.37;;
10550;SDS011;5324;50.684;3.862;2024-02-21T02:58:00;13.10;;;6.70;;
10550;SDS011;5324;50.684;3.862;2024-02-21T03:00:26;13.47;;;7.00;;
10550;SDS011;5324;50.684;3.862;2024-02-21T03:02:52;10.23;;;6.83;;
10550;SDS011;5324;50.684;3.862;2024-02-21T03:05:19;13.37;;;6.80;;
10550;SDS011;5324;50.684;3.862;2024-02-21T03:07:45;10.50;;;7.03;;
10550;SDS011;5324;50.684;3.862;2024-02-21T03:10:12;14.67;;;7.60;;
10550;SDS011;5324;50.684;3.862;2024-02-21T03:12:38;15.37;;;7.07;;
10550;SDS011;5324;50.684;3.862;2024-02-21T03:15:04;11.83;;;6.93;;
10550;SDS011;5324;50.684;3.862;2024-02-21T03:17:31;15.53;;;6.77;;
10550;SDS011;5324;50.684;3.862;2024-02-21T03:19:59;12.10;;;7.27;;
10550;SDS011;5324;50.684;3.862;2024-02-21T03:22:25;10.53;;;6.90;;
10550;SDS011;5324;50.684;3.862;2024-02-21T03:24:51;11.57;;;6.13;;
10550;SDS011;5324;50.684;3.862;2024-02-21T03:27:17;12.17;;;7.17;;
10550;SDS011;5324;50.684;3.862;2024-02-21T03:29:43;15.30;;;6.77;;
10550;SDS011;5324;50.684;3.862;2024-02-21T03:32:09;13.00;;;6.63;;
10550;SDS011;5324;50.684;3.862;2024-02-21T03:34:35;13.33;;;6.63;;
10550;SDS011;5324;50.684;3.862;2024-02-21T03:37:01;11.07;;;6.70;;
10550;SDS011;5324;50.684;3.862;2024-02-21T03:39:27;11.00;;;6.13;;
10550;SDS011;5324;50.684;3.862;2024-02-21T03:41:56;11.40;;;7.03;;
10550;SDS011;5324;50.684;3.862;2024-02-21T03:44:23;11.80;;;6.70;;
10550;SDS011;5324;50.684;3.862;2024-02-21T03:46:49;8.57;;;6.70;;
10550;SDS011;5324;50.684;3.862;2024-02-21T03:49:15;9.20;;;6.60;;
10550;SDS011;5324;50.684;3.862;2024-02-21T03:51:41;12.50;;;7.43;;
10550;SDS011;5324;50.684;3.862;2024-02-21T03:54:07;12.90;;;6.37;;
10550;SDS011;5324;50.684;3.862;2024-02-21T03:56:36;9.90;;;5.80;;
10550;SDS011;5324;50.684;3.862;2024-02-21T03:59:02;10.10;;;6.73;;
10550;SDS011;5324;50.684;3.862;2024-02-21T04:01:28;11.67;;;5.97;;
10550;SDS011;5324;50.684;3.862;2024-02-21T04:03:54;13.33;;;6.60;;
10550;SDS011;5324;50.684;3.862;2024-02-21T04:06:20;9.93;;;6.20;;
10550;SDS011;5324;50.684;3.862;2024-02-21T04:08:46;10.47;;;6.03;;
10550;SDS011;5324;50.684;3.862;2024-02-21T04:11:12;14.13;;;6.30;;
10550;SDS011;5324;50.684;3.862;2024-02-21T04:13:38;9.47;;;6.67;;
10550;SDS011;5324;50.684;3.862;2024-02-21T04:16:04;9.00;;;5.90;;
10550;SDS011;5324;50.684;3.862;2024-02-21T04:18:31;11.13;;;6.77;;
10550;SDS011;5324;50.684;3.862;2024-02-21T04:20:57;11.90;;;6.90;;
10550;SDS011;5324;50.684;3.862;2024-02-21T04:23:23;10.37;;;6.40;;
10550;SDS011;5324;50.684;3.862;2024-02-21T04:25:49;9.13;;;6.07;;
10550;SDS011;5324;50.684;3.862;2024-02-21T04:28:15;11.50;;;6.10;;
10550;SDS011;5324;50.684;3.862;2024-02-21T04:30:41;9.27;;;5.87;;
10550;SDS011;5324;50.684;3.862;2024-02-21T04:33:07;9.40;;;5.67;;
10550;SDS011;5324;50.684;3.862;2024-02-21T04:35:33;9.93;;;5.83;;
10550;SDS011;5324;50.684;3.862;2024-02-21T04:37:59;9.57;;;6.27;;
10550;SDS011;5324;50.684;3.862;2024-02-21T04:40:25;8.37;;;5.67;;
10550;SDS011;5324;50.684;3.862;2024-02-21T04:42:51;8.67;;;5.97;;
10550;SDS011;5324;50.684;3.862;2024-02-21T04:45:17;15.07;;;6.40;;
10550;SDS011;5324;50.684;3.862;2024-02-21T04:47:43;9.47;;;5.67;;
10550;SDS011;5324;50.684;3.862;2024-02-21T04:50:09;9.23;;;6.23;;
10550;SDS011;5324;50.684;3.862;2024-02-21T04:52:35;8.07;;;5.90;;
10550;SDS011;5324;50.684;3.862;2024-02-21T04:55:01;10.20;;;6.00;;
10550;SDS011;5324;50.684;3.862;2024-02-21T04:57:27;7.77;;;6.50;;
10550;SDS011;5324;50.684;3.862;2024-02-21T04:59:53;9.23;;;5.23;;
10550;SDS011;5324;50.684;3.862;2024-02-21T05:02:19;10.63;;;5.60;;
10550;SDS011;5324;50.684;3.862;2024-02-21T05:04:47;8.70;;;6.10;;
10550;SDS011;5324;50.684;3.862;2024-02-21T05:07:13;10.47;;;6.10;;
10550;SDS011;5324;50.684;3.862;2024-02-21T05:09:39;8.47;;;5.87;;
10550;SDS011;5324;50.684;3.862;2024-02-21T05:12:05;9.70;;;5.87;;
10550;SDS011;5324;50.684;3.862;2024-02-21T05:14:31;9.23;;;5.73;;
10550;SDS011;5324;50.684;3.862;2024-02-21T05:16:57;8.03;;;6.10;;
10550;SDS011;5324;50.684;3.862;2024-02-21T05:19:23;8.00;;;5.93;;
10550;SDS011;5324;50.684;3.862;2024-02-21T05:21:49;7.37;;;5.63;;
10550;SDS011;5324;50.684;3.862;2024-02-21T05:24:15;7.20;;;5.17;;
10550;SDS011;5324;50.684;3.862;2024-02-21T05:26:41;10.17;;;5.20;;
10550;SDS011;5324;50.684;3.862;2024-02-21T05:29:07;9.43;;;5.20;;
10550;SDS011;5324;50.684;3.862;2024-02-21T05:31:54;6.20;;;5.57;;
10550;SDS011;5324;50.684;3.862;2024-02-21T05:34:23;8.93;;;5.77;;
10550;SDS011;5324;50.684;3.862;2024-02-21T05:36:50;9.17;;;5.70;;
10550;SDS011;5324;50.684;3.862;2024-02-21T05:39:17;9.03;;;5.60;;
10550;SDS011;5324;50.684;3.862;2024-02-21T05:41:43;8.50;;;5.63;;
10550;SDS011;5324;50.684;3.862;2024-02-21T05:44:10;11.67;;;6.07;;
10550;SDS011;5324;50.684;3.862;2024-02-21T05:46:36;6.77;;;5.70;;
10550;SDS011;5324;50.684;3.862;2024-02-21T05:49:02;10.30;;;5.77;;
10550;SDS011;5324;50.684;3.862;2024-02-21T05:51:32;7.53;;;5.73;;
10550;SDS011;5324;50.684;3.862;2024-02-21T05:53:58;9.77;;;6.10;;
10550;SDS011;5324;50.684;3.862;2024-02-21T05:56:24;9.20;;;6.73;;
10550;SDS011;5324;50.684;3.862;2024-02-21T05:58:50;8.37;;;6.43;;
10550;SDS011;5324;50.684;3.862;2024-02-21T06:01:16;9.53;;;6.50;;
10550;SDS011;5324;50.684;3.862;2024-02-21T06:03:43;12.23;;;6.90;;
10550;SDS011;5324;50.684;3.862;2024-02-21T06:06:09;9.30;;;6.60;;
10550;SDS011;5324;50.684;3.862;2024-02-21T06:08:35;9.43;;;6.90;;
10550;SDS011;5324;50.684;3.862;2024-02-21T06:11:02;9.63;;;6.90;;
10550;SDS011;5324;50.684;3.862;2024-02-21T06:13:28;10.23;;;6.97;;
10550;SDS011;5324;50.684;3.862;2024-02-21T06:15:54;11.43;;;7.07;;
10550;SDS011;5324;50.684;3.862;2024-02-21T06:18:20;8.83;;;6.90;;
10550;SDS011;5324;50.684;3.862;2024-02-21T06:20:46;10.60;;;7.00;;
10550;SDS011;5324;50.684;3.862;2024-02-21T06:23:13;8.10;;;6.10;;
10550;SDS011;5324;50.684;3.862;2024-02-21T06:25:40;9.73;;;6.50;;
10550;SDS011;5324;50.684;3.862;2024-02-21T06:28:06;10.73;;;6.80;;
10550;SDS011;5324;50.684;3.862;2024-02-21T06:30:32;11.67;;;7.47;;
10550;SDS011;5324;50.684;3.862;2024-02-21T06:32:58;8.90;;;7.17;;
10550;SDS011;5324;50.684;3.862;2024-02-21T06:35:24;10.77;;;7.23;;
10550;SDS011;5324;50.684;3.862;2024-02-21T06:37:51;10.10;;;7.93;;
10550;SDS011;5324;50.684;3.862;2024-02-21T06:40:17;9.07;;;7.63;;
10550;SDS011;5324;50.684;3.862;2024-02-21T06:42:43;10.07;;;7.23;;
10550;SDS011;5324;50.684;3.862;2024-02-21T06:45:09;8.97;;;6.83;;
10550;SDS011;5324;50.684;3.862;2024-02-21T06:47:35;11.53;;;8.20;;
10550;SDS011;5324;50.684;3.862;2024-02-21T06:50:01;9.77;;;7.63;;
10550;SDS011;5324;50.684;3.862;2024-02-21T06:52:27;10.03;;;7.60;;
10550;SDS011;5324;50.684;3.862;2024-02-21T06:54:54;10.73;;;7.33;;
10550;SDS011;5324;50.684;3.862;2024-02-21T06:57:20;10.57;;;7.53;;
10550;SDS011;5324;50.684;3.862;2024-02-21T06:59:46;10.23;;;7.23;;
10550;SDS011;5324;50.684;3.862;2024-02-21T07:02:12;13.33;;;7.73;;
10550;SDS011;5324;50.684;3.862;2024-02-21T07:04:38;11.63;;;7.23;;
10550;SDS011;5324;50.684;3.862;2024-02-21T07:07:04;10.87;;;7.13;;
10550;SDS011;5324;50.684;3.862;2024-02-21T07:09:30;11.03;;;7.10;;
10550;SDS011;5324;50.684;3.862;2024-02-21T07:12:00;10.17;;;7.57;;
10550;SDS011;5324;50.684;3.862;2024-02-21T07:14:27;10.30;;;6.90;;
10550;SDS011;5324;50.684;3.862;2024-02-21T07:16:55;10.33;;;6.90;;
10550;SDS011;5324;50.684;3.862;2024-02-21T07:19:22;11.03;;;7.00;;
10550;SDS011;5324;50.684;3.862;2024-02-21T07:21:48;10.27;;;6.50;;
10550;SDS011;5324;50.684;3.862;2024-02-21T07:24:14;11.33;;;6.80;;
10550;SDS011;5324;50.684;3.862;2024-02-21T07:26:43;8.83;;;6.40;;
10550;SDS011;5324;50.684;3.862;2024-02-21T07:29:09;7.80;;;6.27;;
10550;SDS011;5324;50.684;3.862;2024-02-21T07:31:41;9.83;;;6.73;;
10550;SDS011;5324;50.684;3.862;2024-02-21T07:34:07;8.60;;;7.17;;
10550;SDS011;5324;50.684;3.862;2024-02-21T07:36:33;11.60;;;6.03;;
10550;SDS011;5324;50.684;3.862;2024-02-21T07:38:59;10.03;;;6.63;;
10550;SDS011;5324;50.684;3.862;2024-02-21T07:41:25;11.20;;;6.43;;
10550;SDS011;5324;50.684;3.862;2024-02-21T07:43:53;12.17;;;7.03;;
10550;SDS011;5324;50.684;3.862;2024-02-21T07:46:19;11.10;;;6.87;;
10550;SDS011;5324;50.684;3.862;2024-02-21T07:48:45;9.90;;;6.60;;
10550;SDS011;5324;50.684;3.862;2024-02-21T07:51:12;7.77;;;5.53;;
10550;SDS011;5324;50.684;3.862;2024-02-21T07:53:41;7.87;;;6.33;;
10550;SDS011;5324;50.684;3.862;2024-02-21T07:56:12;7.87;;;5.43;;
10550;SDS011;5324;50.684;3.862;2024-02-21T07:58:39;7.90;;;5.80;;
10550;SDS011;5324;50.684;3.862;2024-02-21T08:01:05;9.83;;;6.30;;
10550;SDS011;5324;50.684;3.862;2024-02-21T08:03:31;7.73;;;5.87;;
10550;SDS011;5324;50.684;3.862;2024-02-21T08:05:57;9.27;;;5.53;;
10550;SDS011;5324;50.684;3.862;2024-02-21T08:08:23;7.83;;;6.00;;
10550;SDS011;5324;50.684;3.862;2024-02-21T08:10:50;10.20;;;5.63;;
10550;SDS011;5324;50.684;3.862;2024-02-21T08:13:16;7.93;;;5.10;;
10550;SDS011;5324;50.684;3.862;2024-02-21T08:15:42;9.10;;;5.40;;
10550;SDS011;5324;50.684;3.862;2024-02-21T08:18:08;9.30;;;5.77;;
10550;SDS011;5324;50.684;3.862;2024-02-21T08:20:34;9.67;;;4.87;;
10550;SDS011;5324;50.684;3.862;2024-02-21T08:23:00;7.77;;;5.33;;
10550;SDS011;5324;50.684;3.862;2024-02-21T08:25:26;7.73;;;5.33;;
10550;SDS011;5324;50.684;3.862;2024-02-21T08:27:55;8.37;;;4.80;;
10550;SDS011;5324;50.684;3.862;2024-02-21T08:30:21;10.47;;;5.90;;
10550;SDS011;5324;50.684;3.862;2024-02-21T08:32:47;9.07;;;4.80;;
10550;SDS011;5324;50.684;3.862;2024-02-21T08:35:13;6.90;;;5.33;;
10550;SDS011;5324;50.684;3.862;2024-02-21T08:37:39;9.47;;;5.60;;
10550;SDS011;5324;50.684;3.862;2024-02-21T08:40:05;7.10;;;5.03;;
10550;SDS011;5324;50.684;3.862;2024-02-21T08:42:34;11.93;;;5.43;;
10550;SDS011;5324;50.684;3.862;2024-02-21T08:45:02;7.33;;;4.87;;
10550;SDS011;5324;50.684;3.862;2024-02-21T08:47:28;7.70;;;4.80;;
10550;SDS011;5324;50.684;3.862;2024-02-21T08:49:54;6.33;;;4.73;;
10550;SDS011;5324;50.684;3.862;2024-02-21T08:52:20;8.17;;;4.90;;
10550;SDS011;5324;50.684;3.862;2024-02-21T08:54:46;9.17;;;4.87;;
10550;SDS011;5324;50.684;3.862;2024-02-21T08:57:12;10.63;;;4.90;;
10550;SDS011;5324;50.684;3.862;2024-02-21T08:59:41;7.73;;;4.60;;
10550;SDS011;5324;50.684;3.862;2024-02-21T09:02:07;9.20;;;4.40;;
10550;SDS011;5324;50.684;3.862;2024-02-21T09:04:34;6.20;;;4.47;;
10550;SDS011;5324;50.684;3.862;2024-02-21T09:07:00;6.30;;;4.10;;
10550;SDS011;5324;50.684;3.862;2024-02-21T09:09:26;8.10;;;4.93;;
10550;SDS011;5324;50.684;3.862;2024-02-21T09:11:53;6.87;;;4.00;;
10550;SDS011;5324;50.684;3.862;2024-02-21T09:14:19;19.07;;;7.73;;
10550;SDS011;5324;50.684;3.862;2024-02-21T09:16:45;6.47;;;4.50;;
10550;SDS011;5324;50.684;3.862;2024-02-21T09:19:11;7.60;;;4.97;;
10550;SDS011;5324;50.684;3.862;2024-02-21T09:21:37;6.10;;;4.10;;
10550;SDS011;5324;50.684;3.862;2024-02-21T09:24:04;7.50;;;4.30;;
10550;SDS011;5324;50.684;3.862;2024-02-21T09:26:30;8.70;;;4.40;;
10550;SDS011;5324;50.684;3.862;2024-02-21T09:28:56;6.73;;;4.23;;
10550;SDS011;5324;50.684;3.862;2024-02-21T09:31:22;6.77;;;4.47;;
10550;SDS011;5324;50.684;3.862;2024-02-21T09:33:48;6.30;;;4.47;;
10550;SDS011;5324;50.684;3.862;2024-02-21T09:36:15;6.33;;;4.10;;
10550;SDS011;5324;50.684;3.862;2024-02-21T09:38:41;4.90;;;4.07;;
10550;SDS011;5324;50.684;3.862;2024-02-21T09:43:33;6.47;;;4.57;;
10550;SDS011;5324;50.684;3.862;2024-02-21T09:45:59;7.17;;;4.27;;
10550;SDS011;5324;50.684;3.862;2024-02-21T09:50:55;8.73;;;4.83;;
10550;SDS011;5324;50.684;3.862;2024-02-21T09:53:21;5.93;;;4.00;;
10550;SDS011;5324;50.684;3.862;2024-02-21T09:55:50;7.87;;;4.17;;
10550;SDS011;5324;50.684;3.862;2024-02-21T09:58:16;6.03;;;3.80;;
10550;SDS011;5324;50.684;3.862;2024-02-21T10:00:42;6.73;;;3.40;;
10550;SDS011;5324;50.684;3.862;2024-02-21T10:03:08;6.10;;;3.67;;
10550;SDS011;5324;50.684;3.862;2024-02-21T10:05:34;7.63;;;4.27;;
10550;SDS011;5324;50.684;3.862;2024-02-21T10:08:00;6.13;;;3.97;;
10550;SDS011;5324;50.684;3.862;2024-02-21T10:10:26;5.97;;;4.37;;
10550;SDS011;5324;50.684;3.862;2024-02-21T10:12:54;9.70;;;3.70;;
10550;SDS011;5324;50.684;3.862;2024-02-21T10:15:22;9.40;;;4.17;;
10550;SDS011;5324;50.684;3.862;2024-02-21T10:17:49;8.77;;;4.10;;
10550;SDS011;5324;50.684;3.862;2024-02-21T10:20:15;6.37;;;3.63;;
10550;SDS011;5324;50.684;3.862;2024-02-21T10:22:41;6.57;;;3.93;;
10550;SDS011;5324;50.684;3.862;2024-02-21T10:25:11;7.33;;;3.77;;
10550;SDS011;5324;50.684;3.862;2024-02-21T10:27:37;6.30;;;4.10;;
10550;SDS011;5324;50.684;3.862;2024-02-21T10:30:04;7.47;;;3.87;;
10550;SDS011;5324;50.684;3.862;2024-02-21T10:32:31;8.90;;;4.00;;
10550;SDS011;5324;50.684;3.862;2024-02-21T10:35:03;7.27;;;3.70;;
10550;SDS011;5324;50.684;3.862;2024-02-21T10:37:30;5.93;;;3.73;;
10550;SDS011;5324;50.684;3.862;2024-02-21T10:40:00;5.53;;;3.40;;
10550;SDS011;5324;50.684;3.862;2024-02-21T10:42:28;7.60;;;3.67;;
10550;SDS011;5324;50.684;3.862;2024-02-21T10:45:00;6.97;;;3.73;;
10550;SDS011;5324;50.684;3.862;2024-02-21T10:47:29;6.10;;;3.57;;
10550;SDS011;5324;50.684;3.862;2024-02-21T10:49:57;7.00;;;3.73;;
10550;SDS011;5324;50.684;3.862;2024-02-21T10:54:56;6.13;;;3.50;;
10550;SDS011;5324;50.684;3.862;2024-02-21T10:57:25;5.40;;;3.23;;
10550;SDS011;5324;50.684;3.862;2024-02-21T10:59:55;6.00;;;3.33;;
10550;SDS011;5324;50.684;3.862;2024-02-21T11:02:21;5.23;;;3.70;;
10550;SDS011;5324;50.684;3.862;2024-02-21T11:04:48;5.23;;;3.40;;
10550;SDS011;5324;50.684;3.862;2024-02-21T11:07:14;8.10;;;3.93;;
10550;SDS011;5324;50.684;3.862;2024-02-21T11:09:50;6.07;;;3.80;;
10550;SDS011;5324;50.684;3.862;2024-02-21T11:12:19;8.40;;;3.40;;
10550;SDS011;5324;50.684;3.862;2024-02-21T11:14:46;6.33;;;3.70;;
10550;SDS011;5324;50.684;3.862;2024-02-21T11:17:18;4.33;;;3.37;;
10550;SDS011;5324;50.684;3.862;2024-02-21T11:19:46;4.70;;;3.13;;
10550;SDS011;5324;50.684;3.862;2024-02-21T11:22:16;6.17;;;3.97;;
10550;SDS011;5324;50.684;3.862;2024-02-21T11:24:42;4.07;;;3.13;;
10550;SDS011;5324;50.684;3.862;2024-02-21T11:27:08;5.07;;;3.67;;
10550;SDS011;5324;50.684;3.862;2024-02-21T11:32:09;7.00;;;3.60;;
10550;SDS011;5324;50.684;3.862;2024-02-21T11:34:35;4.37;;;3.27;;
10550;SDS011;5324;50.684;3.862;2024-02-21T11:37:01;5.43;;;3.60;;
10550;SDS011;5324;50.684;3.862;2024-02-21T11:39:27;5.47;;;3.50;;
10550;SDS011;5324;50.684;3.862;2024-02-21T11:42:27;4.70;;;3.40;;
10550;SDS011;5324;50.684;3.862;2024-02-21T11:44:45;5.20;;;3.47;;
10550;SDS011;5324;50.684;3.862;2024-02-21T11:47:13;4.10;;;3.17;;
10550;SDS011;5324;50.684;3.862;2024-02-21T11:49:44;4.90;;;3.83;;
10550;SDS011;5324;50.684;3.862;2024-02-21T11:52:11;6.93;;;3.23;;
10550;SDS011;5324;50.684;3.862;2024-02-21T11:54:40;7.37;;;3.33;;
10550;SDS011;5324;50.684;3.862;2024-02-21T11:57:06;4.93;;;3.23;;
10550;SDS011;5324;50.684;3.862;2024-02-21T11:59:32;5.57;;;4.23;;
10550;SDS011;5324;50.684;3.862;2024-02-21T12:01:59;4.43;;;3.40;;
10550;SDS011;5324;50.684;3.862;2024-02-21T12:04:25;5.80;;;3.93;;
10550;SDS011;5324;50.684;3.862;2024-02-21T12:06:54;6.27;;;4.30;;
10550;SDS011;5324;50.684;3.862;2024-02-21T12:09:22;6.73;;;3.80;;
10550;SDS011;5324;50.684;3.862;2024-02-21T12:11:56;6.30;;;3.83;;
10550;SDS011;5324;50.684;3.862;2024-02-21T12:14:24;6.47;;;3.60;;
10550;SDS011;5324;50.684;3.862;2024-02-21T12:16:50;5.07;;;3.60;;
10550;SDS011;5324;50.684;3.862;2024-02-21T12:19:16;4.83;;;3.53;;
10550;SDS011;5324;50.684;3.862;2024-02-21T12:21:42;6.50;;;3.47;;
10550;SDS011;5324;50.684;3.862;2024-02-21T12:24:16;6.17;;;3.90;;
10550;SDS011;5324;50.684;3.862;2024-02-21T12:26:42;8.80;;;3.87;;
10550;SDS011;5324;50.684;3.862;2024-02-21T12:29:08;7.03;;;3.80;;
10550;SDS011;5324;50.684;3.862;2024-02-21T12:31:38;4.00;;;3.57;;
10550;SDS011;5324;50.684;3.862;2024-02-21T12:34:04;6.63;;;3.73;;
10550;SDS011;5324;50.684;3.862;2024-02-21T12:36:31;6.37;;;4.00;;
10550;SDS011;5324;50.684;3.862;2024-02-21T12:38:57;7.23;;;4.10;;
10550;SDS011;5324;50.684;3.862;2024-02-21T12:41:23;8.37;;;4.63;;
10550;SDS011;5324;50.684;3.862;2024-02-21T12:43:50;4.67;;;3.77;;
10550;SDS011;5324;50.684;3.862;2024-02-21T12:46:16;6.00;;;3.73;;
10550;SDS011;5324;50.684;3.862;2024-02-21T12:48:42;7.63;;;4.30;;
10550;SDS011;5324;50.684;3.862;2024-02-21T12:51:08;8.10;;;3.83;;
10550;SDS011;5324;50.684;3.862;2024-02-21T12:53:34;5.37;;;3.70;;
10550;SDS011;5324;50.684;3.862;2024-02-21T12:56:00;7.03;;;4.00;;
10550;SDS011;5324;50.684;3.862;2024-02-21T12:58:26;5.53;;;3.23;;
10550;SDS011;5324;50.684;3.862;2024-02-21T13:00:54;5.07;;;3.90;;
10550;SDS011;5324;50.684;3.862;2024-02-21T13:03:20;5.27;;;3.27;;
10550;SDS011;5324;50.684;3.862;2024-02-21T13:05:46;6.97;;;3.80;;
10550;SDS011;5324;50.684;3.862;2024-02-21T13:08:13;5.23;;;3.37;;
10550;SDS011;5324;50.684;3.862;2024-02-21T13:10:39;4.90;;;4.00;;
10550;SDS011;5324;50.684;3.862;2024-02-21T13:13:05;7.03;;;4.20;;
10550;SDS011;5324;50.684;3.862;2024-02-21T13:15:31;7.90;;;4.00;;
10550;SDS011;5324;50.684;3.862;2024-02-21T13:17:57;7.27;;;3.87;;
10550;SDS011;5324;50.684;3.862;2024-02-21T13:20:24;5.03;;;4.40;;
10550;SDS011;5324;50.684;3.862;2024-02-21T13:22:50;5.87;;;3.77;;
10550;SDS011;5324;50.684;3.862;2024-02-21T13:25:16;5.57;;;3.90;;
10550;SDS011;5324;50.684;3.862;2024-02-21T13:27:43;6.13;;;3.90;;
10550;SDS011;5324;50.684;3.862;2024-02-21T13:30:10;4.97;;;3.33;;
10550;SDS011;5324;50.684;3.862;2024-02-21T13:32:36;4.77;;;3.30;;
10550;SDS011;5324;50.684;3.862;2024-02-21T13:35:02;6.40;;;4.53;;
10550;SDS011;5324;50.684;3.862;2024-02-21T13:37:29;4.70;;;3.87;;
10550;SDS011;5324;50.684;3.862;2024-02-21T13:39:55;5.17;;;3.70;;
10550;SDS011;5324;50.684;3.862;2024-02-21T13:42:21;5.47;;;3.97;;
10550;SDS011;5324;50.684;3.862;2024-02-21T13:44:47;5.07;;;4.20;;
10550;SDS011;5324;50.684;3.862;2024-02-21T13:47:14;6.20;;;3.87;;
10550;SDS011;5324;50.684;3.862;2024-02-21T13:49:40;6.50;;;3.97;;
10550;SDS011;5324;50.684;3.862;2024-02-21T13:52:06;7.80;;;4.20;;
10550;SDS011;5324;50.684;3.862;2024-02-21T13:54:34;5.27;;;3.90;;
10550;SDS011;5324;50.684;3.862;2024-02-21T13:57:00;4.83;;;3.80;;
10550;SDS011;5324;50.684;3.862;2024-02-21T13:59:27;10.67;;;4.60;;
10550;SDS011;5324;50.684;3.862;2024-02-21T14:01:53;6.80;;;4.63;;
10550;SDS011;5324;50.684;3.862;2024-02-21T14:04:19;12.83;;;4.67;;
10550;SDS011;5324;50.684;3.862;2024-02-21T14:06:45;5.50;;;4.57;;
10550;SDS011;5324;50.684;3.862;2024-02-21T14:09:12;6.50;;;4.07;;
10550;SDS011;5324;50.684;3.862;2024-02-21T14:11:38;7.03;;;4.30;;
10550;SDS011;5324;50.684;3.862;2024-02-21T14:14:06;7.87;;;4.63;;
10550;SDS011;5324;50.684;3.862;2024-02-21T14:16:32;4.87;;;4.20;;
10550;SDS011;5324;50.684;3.862;2024-02-21T14:18:58;6.63;;;4.73;;
10550;SDS011;5324;50.684;3.862;2024-02-21T14:21:24;7.43;;;4.03;;
10550;SDS011;5324;50.684;3.862;2024-02-21T14:23:50;5.87;;;4.23;;
10550;SDS011;5324;50.684;3.862;2024-02-21T14:26:18;6.63;;;4.37;;
10550;SDS011;5324;50.684;3.862;2024-02-21T14:28:43;4.53;;;3.90;;
10550;SDS011;5324;50.684;3.862;2024-02-21T14:31:10;7.97;;;4.43;;
10550;SDS011;5324;50.684;3.862;2024-02-21T14:33:37;7.60;;;4.60;;
10550;SDS011;5324;50.684;3.862;2024-02-21T14:36:03;7.77;;;4.17;;
10550;SDS011;5324;50.684;3.862;2024-02-21T14:38:29;7.03;;;4.60;;
10550;SDS011;5324;50.684;3.862;2024-02-21T14:40:55;7.07;;;4.13;;
10550;SDS011;5324;50.684;3.862;2024-02-21T14:43:21;8.40;;;4.13;;
10550;SDS011;5324;50.684;3.862;2024-02-21T14:45:48;5.23;;;4.40;;
10550;SDS011;5324;50.684;3.862;2024-02-21T14:48:14;6.60;;;4.67;;
10550;SDS011;5324;50.684;3.862;2024-02-21T14:50:40;6.73;;;4.30;;
10550;SDS011;5324;50.684;3.862;2024-02-21T14:53:07;5.00;;;4.37;;
10550;SDS011;5324;50.684;3.862;2024-02-21T14:55:33;8.93;;;4.40;;
10550;SDS011;5324;50.684;3.862;2024-02-21T14:57:59;4.77;;;3.97;;
10550;SDS011;5324;50.684;3.862;2024-02-21T15:00:26;5.73;;;3.90;;
10550;SDS011;5324;50.684;3.862;2024-02-21T15:02:56;8.83;;;4.23;;